This is the latest recevied weather packets stored in our database for station/object KG0HG. If no packets are shown the sender has not sent any weather packets the latest 10 day(s).
| Time | Temp. | Humidity | Pressure | Rain* | Wind** | Luminosity | Snow |
|---|---|---|---|---|---|---|---|
| 1777677335 | 17.22° C | 32% | 1015.9 hPa | 0 mm | - | 137 W/m² | - |
| 1777677034 | 17.22° C | 31% | 1016 hPa | 0 mm | - | 193 W/m² | - |
| 1777676732 | 17.22° C | 33% | 1016.2 hPa | 0 mm | - | 49 W/m² | - |
| 1777676430 | 17.22° C | 32% | 1016 hPa | 0 mm | - | 38 W/m² | - |
| 1777676127 | 17.78° C | 31% | 1016.3 hPa | 0 mm | - | 35 W/m² | - |
| 1777675823 | 18.33° C | 30% | 1015.8 hPa | 0 mm | - | 48 W/m² | - |
| 1777675521 | 18.33° C | 31% | 1016 hPa | 0 mm | - | 61 W/m² | - |
| 1777675218 | 18.33° C | 30% | 1016 hPa | 0 mm | - | 58 W/m² | - |
| 1777674914 | 17.78° C | 29% | 1016 hPa | 0 mm | - | 62 W/m² | - |
| 1777674610 | 17.78° C | 30% | 1016.4 hPa | 0 mm | - | 51 W/m² | - |
| 1777674308 | 17.78° C | 29% | 1016.4 hPa | 0 mm | - | 49 W/m² | - |
| 1777674005 | 17.78° C | 29% | 1016.2 hPa | 0 mm | - | 52 W/m² | - |
| 1777673700 | 17.22° C | 30% | 1016.3 hPa | 0 mm | - | 60 W/m² | - |
| 1777673398 | 17.22° C | 32% | 1016.4 hPa | 0 mm | - | 52 W/m² | - |
| 1777673095 | 17.78° C | 31% | 1016.2 hPa | 0 mm | - | 55 W/m² | - |
| 1777672791 | 18.33° C | 32% | 1016.4 hPa | 0 mm | - | 85 W/m² | - |
| 1777672488 | 18.33° C | 30% | 1016.3 hPa | 0 mm | - | 94 W/m² | - |
| 1777672183 | 17.78° C | 31% | 1016.3 hPa | 0 mm | - | 199 W/m² | - |
| 1777671879 | 18.33° C | 30% | 1016.5 hPa | 0 mm | - | 162 W/m² | - |
| 1777671575 | 18.33° C | 33% | 1016.6 hPa | 0 mm | - | 94 W/m² | - |
| 1777671272 | 17.78° C | 31% | 1016.4 hPa | 0 mm | - | 149 W/m² | - |
| 1777670967 | 17.78° C | 33% | 1016.7 hPa | 0 mm | - | 150 W/m² | - |
| 1777670665 | 17.78° C | 35% | 1016.9 hPa | 0 mm | - | 95 W/m² | - |
| 1777670361 | 17.22° C | 37% | 1016.9 hPa | 0 mm | - | 80 W/m² | - |
| 1777670059 | 16.67° C | 38% | 1016.9 hPa | 0 mm | - | 140 W/m² | - |
* Rain latest hour (hover to see other rain measurements)
** Current wind speed in m/s (hover to see current wind gust speed)